sensor_id;sensor_type;location;lat;lon;timestamp;P1;durP1;ratioP1;P2;durP2;ratioP2
75426;SDS011;64007;50.632;13.700;2023-08-08T00:00:39;5.28;;;1.60;;
75426;SDS011;64007;50.632;13.700;2023-08-08T00:03:25;3.55;;;1.02;;
75426;SDS011;64007;50.632;13.700;2023-08-08T00:05:51;4.47;;;1.40;;
75426;SDS011;64007;50.632;13.700;2023-08-08T00:08:16;3.92;;;1.30;;
75426;SDS011;64007;50.632;13.700;2023-08-08T00:10:42;2.60;;;1.30;;
75426;SDS011;64007;50.632;13.700;2023-08-08T00:13:08;4.57;;;1.20;;
75426;SDS011;64007;50.632;13.700;2023-08-08T00:15:33;7.05;;;1.75;;
75426;SDS011;64007;50.632;13.700;2023-08-08T00:17:59;6.45;;;1.30;;
75426;SDS011;64007;50.632;13.700;2023-08-08T00:20:25;4.80;;;1.52;;
75426;SDS011;64007;50.632;13.700;2023-08-08T00:22:50;2.92;;;1.30;;
75426;SDS011;64007;50.632;13.700;2023-08-08T00:25:16;5.10;;;1.42;;
75426;SDS011;64007;50.632;13.700;2023-08-08T00:27:42;4.50;;;1.20;;
75426;SDS011;64007;50.632;13.700;2023-08-08T00:30:10;6.80;;;1.35;;
75426;SDS011;64007;50.632;13.700;2023-08-08T00:32:37;5.10;;;1.42;;
75426;SDS011;64007;50.632;13.700;2023-08-08T00:35:03;4.13;;;1.38;;
75426;SDS011;64007;50.632;13.700;2023-08-08T00:37:29;3.20;;;1.30;;
75426;SDS011;64007;50.632;13.700;2023-08-08T00:39:55;3.67;;;1.23;;
75426;SDS011;64007;50.632;13.700;2023-08-08T00:42:21;4.30;;;1.13;;
75426;SDS011;64007;50.632;13.700;2023-08-08T00:44:46;3.00;;;1.15;;
75426;SDS011;64007;50.632;13.700;2023-08-08T00:47:12;6.68;;;1.30;;
75426;SDS011;64007;50.632;13.700;2023-08-08T00:49:38;6.32;;;1.45;;
75426;SDS011;64007;50.632;13.700;2023-08-08T00:52:04;3.20;;;1.35;;
75426;SDS011;64007;50.632;13.700;2023-08-08T00:54:31;2.63;;;1.20;;
75426;SDS011;64007;50.632;13.700;2023-08-08T00:56:57;5.82;;;1.38;;
75426;SDS011;64007;50.632;13.700;2023-08-08T00:59:23;5.35;;;1.75;;
75426;SDS011;64007;50.632;13.700;2023-08-08T01:01:49;5.97;;;1.30;;
75426;SDS011;64007;50.632;13.700;2023-08-08T01:04:15;5.60;;;1.20;;
75426;SDS011;64007;50.632;13.700;2023-08-08T01:06:53;2.88;;;1.30;;
75426;SDS011;64007;50.632;13.700;2023-08-08T01:11:50;2.67;;;1.60;;
75426;SDS011;64007;50.632;13.700;2023-08-08T01:14:17;5.28;;;1.80;;
75426;SDS011;64007;50.632;13.700;2023-08-08T01:16:45;6.32;;;1.40;;
75426;SDS011;64007;50.632;13.700;2023-08-08T01:19:11;5.10;;;1.60;;
75426;SDS011;64007;50.632;13.700;2023-08-08T01:21:40;5.07;;;1.40;;
75426;SDS011;64007;50.632;13.700;2023-08-08T01:26:48;3.97;;;1.40;;
75426;SDS011;64007;50.632;13.700;2023-08-08T01:29:15;3.63;;;1.40;;
75426;SDS011;64007;50.632;13.700;2023-08-08T01:31:41;6.68;;;1.63;;
75426;SDS011;64007;50.632;13.700;2023-08-08T01:34:07;3.03;;;1.50;;
75426;SDS011;64007;50.632;13.700;2023-08-08T01:36:38;4.57;;;1.58;;
75426;SDS011;64007;50.632;13.700;2023-08-08T01:39:30;4.38;;;1.50;;
75426;SDS011;64007;50.632;13.700;2023-08-08T01:41:59;4.00;;;1.35;;
75426;SDS011;64007;50.632;13.700;2023-08-08T01:44:26;6.78;;;2.00;;
75426;SDS011;64007;50.632;13.700;2023-08-08T01:46:52;4.50;;;1.52;;
75426;SDS011;64007;50.632;13.700;2023-08-08T01:49:19;3.58;;;1.58;;
75426;SDS011;64007;50.632;13.700;2023-08-08T01:51:45;4.72;;;1.80;;
75426;SDS011;64007;50.632;13.700;2023-08-08T01:54:11;2.92;;;1.30;;
75426;SDS011;64007;50.632;13.700;2023-08-08T01:56:36;3.40;;;1.38;;
75426;SDS011;64007;50.632;13.700;2023-08-08T01:59:02;3.95;;;1.60;;
75426;SDS011;64007;50.632;13.700;2023-08-08T02:01:28;2.78;;;1.50;;
75426;SDS011;64007;50.632;13.700;2023-08-08T02:03:53;6.55;;;1.70;;
75426;SDS011;64007;50.632;13.700;2023-08-08T02:06:19;4.85;;;1.83;;
75426;SDS011;64007;50.632;13.700;2023-08-08T02:08:45;3.17;;;1.40;;
75426;SDS011;64007;50.632;13.700;2023-08-08T02:11:11;4.07;;;1.55;;
75426;SDS011;64007;50.632;13.700;2023-08-08T02:13:37;3.28;;;1.63;;
75426;SDS011;64007;50.632;13.700;2023-08-08T02:16:02;4.70;;;1.60;;
75426;SDS011;64007;50.632;13.700;2023-08-08T02:18:29;5.00;;;1.70;;
75426;SDS011;64007;50.632;13.700;2023-08-08T02:20:54;3.55;;;1.65;;
75426;SDS011;64007;50.632;13.700;2023-08-08T02:23:20;10.05;;;1.67;;
75426;SDS011;64007;50.632;13.700;2023-08-08T02:25:46;5.78;;;1.48;;
75426;SDS011;64007;50.632;13.700;2023-08-08T02:28:12;5.35;;;1.45;;
75426;SDS011;64007;50.632;13.700;2023-08-08T02:30:37;6.65;;;1.73;;
75426;SDS011;64007;50.632;13.700;2023-08-08T02:33:04;6.65;;;2.10;;
75426;SDS011;64007;50.632;13.700;2023-08-08T02:35:29;5.70;;;1.73;;
75426;SDS011;64007;50.632;13.700;2023-08-08T02:37:56;4.03;;;1.65;;
75426;SDS011;64007;50.632;13.700;2023-08-08T02:40:21;3.47;;;1.65;;
75426;SDS011;64007;50.632;13.700;2023-08-08T02:42:49;3.95;;;1.83;;
75426;SDS011;64007;50.632;13.700;2023-08-08T02:45:15;10.82;;;2.08;;
75426;SDS011;64007;50.632;13.700;2023-08-08T02:47:41;2.72;;;1.50;;
75426;SDS011;64007;50.632;13.700;2023-08-08T02:50:06;3.30;;;1.63;;
75426;SDS011;64007;50.632;13.700;2023-08-08T02:52:33;6.38;;;1.80;;
75426;SDS011;64007;50.632;13.700;2023-08-08T02:54:58;4.18;;;1.58;;
75426;SDS011;64007;50.632;13.700;2023-08-08T02:57:24;4.05;;;1.55;;
75426;SDS011;64007;50.632;13.700;2023-08-08T02:59:50;5.43;;;1.55;;
75426;SDS011;64007;50.632;13.700;2023-08-08T03:02:16;6.10;;;1.50;;
75426;SDS011;64007;50.632;13.700;2023-08-08T03:04:42;7.80;;;1.30;;
75426;SDS011;64007;50.632;13.700;2023-08-08T03:07:07;2.95;;;1.23;;
75426;SDS011;64007;50.632;13.700;2023-08-08T03:09:33;5.40;;;1.40;;
75426;SDS011;64007;50.632;13.700;2023-08-08T03:11:59;4.43;;;1.80;;
75426;SDS011;64007;50.632;13.700;2023-08-08T03:14:24;2.60;;;1.38;;
75426;SDS011;64007;50.632;13.700;2023-08-08T03:16:50;3.83;;;1.70;;
75426;SDS011;64007;50.632;13.700;2023-08-08T03:19:16;5.90;;;1.50;;
75426;SDS011;64007;50.632;13.700;2023-08-08T03:21:42;1.98;;;1.20;;
75426;SDS011;64007;50.632;13.700;2023-08-08T03:24:07;5.32;;;1.40;;
75426;SDS011;64007;50.632;13.700;2023-08-08T03:26:33;4.50;;;1.20;;
75426;SDS011;64007;50.632;13.700;2023-08-08T03:28:58;6.93;;;1.55;;
75426;SDS011;64007;50.632;13.700;2023-08-08T03:31:24;8.88;;;1.80;;
75426;SDS011;64007;50.632;13.700;2023-08-08T03:33:51;4.55;;;1.33;;
75426;SDS011;64007;50.632;13.700;2023-08-08T03:36:17;5.07;;;1.30;;
75426;SDS011;64007;50.632;13.700;2023-08-08T03:38:42;5.15;;;1.27;;
75426;SDS011;64007;50.632;13.700;2023-08-08T03:41:11;2.40;;;1.33;;
75426;SDS011;64007;50.632;13.700;2023-08-08T03:43:39;4.35;;;1.92;;
75426;SDS011;64007;50.632;13.700;2023-08-08T03:46:05;2.47;;;1.48;;
75426;SDS011;64007;50.632;13.700;2023-08-08T03:48:32;8.23;;;1.55;;
75426;SDS011;64007;50.632;13.700;2023-08-08T03:50:58;4.55;;;1.30;;
75426;SDS011;64007;50.632;13.700;2023-08-08T03:53:23;3.47;;;1.20;;
75426;SDS011;64007;50.632;13.700;2023-08-08T03:55:49;1.95;;;1.30;;
75426;SDS011;64007;50.632;13.700;2023-08-08T03:58:15;2.35;;;1.20;;
75426;SDS011;64007;50.632;13.700;2023-08-08T04:00:41;3.05;;;1.40;;
75426;SDS011;64007;50.632;13.700;2023-08-08T04:03:14;2.90;;;1.33;;
75426;SDS011;64007;50.632;13.700;2023-08-08T04:05:43;4.50;;;1.55;;
75426;SDS011;64007;50.632;13.700;2023-08-08T04:08:11;2.50;;;1.30;;
75426;SDS011;64007;50.632;13.700;2023-08-08T04:10:37;2.88;;;1.35;;
75426;SDS011;64007;50.632;13.700;2023-08-08T04:13:02;2.47;;;1.13;;
75426;SDS011;64007;50.632;13.700;2023-08-08T04:15:29;2.38;;;1.02;;
75426;SDS011;64007;50.632;13.700;2023-08-08T04:17:54;2.50;;;1.40;;
75426;SDS011;64007;50.632;13.700;2023-08-08T04:20:20;1.83;;;1.20;;
75426;SDS011;64007;50.632;13.700;2023-08-08T04:22:46;5.03;;;1.30;;
75426;SDS011;64007;50.632;13.700;2023-08-08T04:25:12;2.17;;;1.40;;
75426;SDS011;64007;50.632;13.700;2023-08-08T04:27:37;3.83;;;1.48;;
75426;SDS011;64007;50.632;13.700;2023-08-08T04:30:03;2.92;;;1.30;;
75426;SDS011;64007;50.632;13.700;2023-08-08T04:32:29;3.17;;;1.30;;
75426;SDS011;64007;50.632;13.700;2023-08-08T04:34:56;3.75;;;1.30;;
75426;SDS011;64007;50.632;13.700;2023-08-08T04:37:22;2.13;;;1.33;;
75426;SDS011;64007;50.632;13.700;2023-08-08T04:39:48;5.30;;;1.38;;
75426;SDS011;64007;50.632;13.700;2023-08-08T04:42:13;2.50;;;1.23;;
75426;SDS011;64007;50.632;13.700;2023-08-08T04:44:39;2.20;;;1.60;;
75426;SDS011;64007;50.632;13.700;2023-08-08T04:47:06;4.60;;;1.50;;
75426;SDS011;64007;50.632;13.700;2023-08-08T04:49:32;7.80;;;1.48;;
75426;SDS011;64007;50.632;13.700;2023-08-08T04:51:58;2.75;;;1.30;;
75426;SDS011;64007;50.632;13.700;2023-08-08T04:54:23;7.63;;;1.30;;
75426;SDS011;64007;50.632;13.700;2023-08-08T04:56:49;6.15;;;1.60;;
75426;SDS011;64007;50.632;13.700;2023-08-08T04:59:15;7.13;;;1.50;;
75426;SDS011;64007;50.632;13.700;2023-08-08T05:01:40;3.72;;;1.77;;
75426;SDS011;64007;50.632;13.700;2023-08-08T05:04:06;2.72;;;1.50;;
75426;SDS011;64007;50.632;13.700;2023-08-08T05:06:32;2.97;;;1.20;;
75426;SDS011;64007;50.632;13.700;2023-08-08T05:08:58;4.70;;;1.33;;
75426;SDS011;64007;50.632;13.700;2023-08-08T05:11:23;6.63;;;1.55;;
75426;SDS011;64007;50.632;13.700;2023-08-08T05:13:49;5.47;;;1.30;;
75426;SDS011;64007;50.632;13.700;2023-08-08T05:16:15;6.82;;;1.60;;
75426;SDS011;64007;50.632;13.700;2023-08-08T05:18:41;5.55;;;1.75;;
75426;SDS011;64007;50.632;13.700;2023-08-08T05:21:09;5.40;;;1.50;;
75426;SDS011;64007;50.632;13.700;2023-08-08T05:23:35;3.85;;;1.23;;
75426;SDS011;64007;50.632;13.700;2023-08-08T05:26:00;2.45;;;1.27;;
75426;SDS011;64007;50.632;13.700;2023-08-08T05:28:26;3.50;;;1.50;;
75426;SDS011;64007;50.632;13.700;2023-08-08T05:30:52;5.47;;;1.40;;
75426;SDS011;64007;50.632;13.700;2023-08-08T05:33:18;2.92;;;1.27;;
75426;SDS011;64007;50.632;13.700;2023-08-08T05:35:44;4.30;;;1.50;;
75426;SDS011;64007;50.632;13.700;2023-08-08T05:38:09;2.85;;;1.73;;
75426;SDS011;64007;50.632;13.700;2023-08-08T05:40:35;4.18;;;1.30;;
75426;SDS011;64007;50.632;13.700;2023-08-08T05:43:02;3.45;;;1.50;;
75426;SDS011;64007;50.632;13.700;2023-08-08T05:45:28;5.65;;;1.33;;
75426;SDS011;64007;50.632;13.700;2023-08-08T05:47:54;3.08;;;1.30;;
75426;SDS011;64007;50.632;13.700;2023-08-08T05:50:21;4.75;;;1.48;;
75426;SDS011;64007;50.632;13.700;2023-08-08T05:52:47;3.35;;;1.10;;
75426;SDS011;64007;50.632;13.700;2023-08-08T05:55:13;4.78;;;1.40;;
75426;SDS011;64007;50.632;13.700;2023-08-08T05:57:39;6.05;;;1.55;;
75426;SDS011;64007;50.632;13.700;2023-08-08T06:00:04;7.47;;;1.30;;
75426;SDS011;64007;50.632;13.700;2023-08-08T06:02:31;2.90;;;1.10;;
75426;SDS011;64007;50.632;13.700;2023-08-08T06:04:56;4.82;;;1.20;;
75426;SDS011;64007;50.632;13.700;2023-08-08T06:07:22;3.95;;;1.10;;
75426;SDS011;64007;50.632;13.700;2023-08-08T06:09:48;3.25;;;1.05;;
75426;SDS011;64007;50.632;13.700;2023-08-08T06:12:14;10.40;;;1.10;;
75426;SDS011;64007;50.632;13.700;2023-08-08T06:14:39;5.80;;;1.20;;
75426;SDS011;64007;50.632;13.700;2023-08-08T06:17:05;4.53;;;1.15;;
75426;SDS011;64007;50.632;13.700;2023-08-08T06:19:31;1.42;;;0.80;;
75426;SDS011;64007;50.632;13.700;2023-08-08T06:21:57;3.65;;;1.08;;
75426;SDS011;64007;50.632;13.700;2023-08-08T06:24:22;3.60;;;1.02;;
75426;SDS011;64007;50.632;13.700;2023-08-08T06:26:48;2.00;;;0.90;;
75426;SDS011;64007;50.632;13.700;2023-08-08T06:29:14;3.85;;;0.98;;
75426;SDS011;64007;50.632;13.700;2023-08-08T06:31:40;3.60;;;1.13;;
75426;SDS011;64007;50.632;13.700;2023-08-08T06:34:06;2.42;;;1.00;;
75426;SDS011;64007;50.632;13.700;2023-08-08T06:36:32;4.82;;;1.13;;
75426;SDS011;64007;50.632;13.700;2023-08-08T06:38:57;3.15;;;1.05;;
75426;SDS011;64007;50.632;13.700;2023-08-08T06:41:23;5.88;;;1.30;;
75426;SDS011;64007;50.632;13.700;2023-08-08T06:43:48;2.00;;;1.00;;
75426;SDS011;64007;50.632;13.700;2023-08-08T06:46:14;2.08;;;1.00;;
75426;SDS011;64007;50.632;13.700;2023-08-08T06:48:42;1.70;;;0.90;;
75426;SDS011;64007;50.632;13.700;2023-08-08T06:51:08;5.10;;;1.10;;
75426;SDS011;64007;50.632;13.700;2023-08-08T06:53:34;2.08;;;0.77;;
75426;SDS011;64007;50.632;13.700;2023-08-08T06:55:59;3.78;;;1.17;;
75426;SDS011;64007;50.632;13.700;2023-08-08T06:58:25;8.13;;;1.45;;
75426;SDS011;64007;50.632;13.700;2023-08-08T07:00:51;1.95;;;1.00;;
75426;SDS011;64007;50.632;13.700;2023-08-08T07:03:16;2.03;;;1.00;;
75426;SDS011;64007;50.632;13.700;2023-08-08T07:05:42;5.53;;;0.93;;
75426;SDS011;64007;50.632;13.700;2023-08-08T07:08:08;2.55;;;1.05;;
75426;SDS011;64007;50.632;13.700;2023-08-08T07:10:35;2.03;;;0.90;;
75426;SDS011;64007;50.632;13.700;2023-08-08T07:13:01;3.22;;;1.10;;
75426;SDS011;64007;50.632;13.700;2023-08-08T07:15:27;2.53;;;1.00;;
75426;SDS011;64007;50.632;13.700;2023-08-08T07:17:53;2.85;;;0.90;;
75426;SDS011;64007;50.632;13.700;2023-08-08T07:20:19;5.85;;;1.20;;
75426;SDS011;64007;50.632;13.700;2023-08-08T07:22:44;1.67;;;0.85;;
75426;SDS011;64007;50.632;13.700;2023-08-08T07:25:10;1.45;;;0.90;;
75426;SDS011;64007;50.632;13.700;2023-08-08T07:27:36;1.67;;;0.88;;
75426;SDS011;64007;50.632;13.700;2023-08-08T07:30:03;3.50;;;0.90;;
75426;SDS011;64007;50.632;13.700;2023-08-08T07:32:30;1.30;;;0.75;;
75426;SDS011;64007;50.632;13.700;2023-08-08T07:34:55;3.90;;;1.10;;
75426;SDS011;64007;50.632;13.700;2023-08-08T07:37:21;2.83;;;1.10;;
75426;SDS011;64007;50.632;13.700;2023-08-08T07:39:50;2.45;;;0.85;;
75426;SDS011;64007;50.632;13.700;2023-08-08T07:42:16;2.03;;;1.08;;
75426;SDS011;64007;50.632;13.700;2023-08-08T07:44:42;3.75;;;0.98;;
75426;SDS011;64007;50.632;13.700;2023-08-08T07:47:07;2.42;;;0.77;;
75426;SDS011;64007;50.632;13.700;2023-08-08T07:49:33;1.38;;;0.90;;
75426;SDS011;64007;50.632;13.700;2023-08-08T07:51:59;7.07;;;1.25;;
75426;SDS011;64007;50.632;13.700;2023-08-08T07:54:25;1.20;;;1.02;;
75426;SDS011;64007;50.632;13.700;2023-08-08T07:56:50;2.03;;;1.00;;
75426;SDS011;64007;50.632;13.700;2023-08-08T07:59:16;4.18;;;0.95;;
75426;SDS011;64007;50.632;13.700;2023-08-08T08:01:42;2.08;;;1.00;;
75426;SDS011;64007;50.632;13.700;2023-08-08T08:04:07;1.65;;;0.95;;
75426;SDS011;64007;50.632;13.700;2023-08-08T08:06:33;2.72;;;1.10;;
75426;SDS011;64007;50.632;13.700;2023-08-08T08:08:59;1.20;;;0.80;;
75426;SDS011;64007;50.632;13.700;2023-08-08T08:11:24;4.63;;;1.10;;
75426;SDS011;64007;50.632;13.700;2023-08-08T08:13:50;2.05;;;1.00;;
75426;SDS011;64007;50.632;13.700;2023-08-08T08:16:16;1.88;;;1.00;;
75426;SDS011;64007;50.632;13.700;2023-08-08T08:18:42;2.97;;;0.90;;
75426;SDS011;64007;50.632;13.700;2023-08-08T08:21:07;1.35;;;0.82;;
75426;SDS011;64007;50.632;13.700;2023-08-08T08:23:33;1.92;;;1.02;;
75426;SDS011;64007;50.632;13.700;2023-08-08T08:25:59;2.83;;;1.33;;
75426;SDS011;64007;50.632;13.700;2023-08-08T08:28:25;3.40;;;1.50;;
75426;SDS011;64007;50.632;13.700;2023-08-08T08:30:52;2.00;;;1.00;;
75426;SDS011;64007;50.632;13.700;2023-08-08T08:33:18;1.95;;;1.00;;
75426;SDS011;64007;50.632;13.700;2023-08-08T08:35:43;1.90;;;0.80;;
75426;SDS011;64007;50.632;13.700;2023-08-08T08:38:11;2.28;;;1.05;;
75426;SDS011;64007;50.632;13.700;2023-08-08T08:40:37;2.05;;;1.02;;
75426;SDS011;64007;50.632;13.700;2023-08-08T08:43:05;3.80;;;1.02;;
75426;SDS011;64007;50.632;13.700;2023-08-08T08:45:32;5.65;;;1.15;;
75426;SDS011;64007;50.632;13.700;2023-08-08T08:48:03;2.47;;;0.90;;
75426;SDS011;64007;50.632;13.700;2023-08-08T08:50:29;1.80;;;1.00;;
75426;SDS011;64007;50.632;13.700;2023-08-08T08:52:59;3.72;;;1.10;;
75426;SDS011;64007;50.632;13.700;2023-08-08T08:55:26;1.33;;;0.80;;
75426;SDS011;64007;50.632;13.700;2023-08-08T08:57:52;3.42;;;1.00;;
75426;SDS011;64007;50.632;13.700;2023-08-08T09:00:18;1.50;;;0.90;;
75426;SDS011;64007;50.632;13.700;2023-08-08T09:02:45;3.30;;;0.95;;
75426;SDS011;64007;50.632;13.700;2023-08-08T09:05:11;1.35;;;0.90;;
75426;SDS011;64007;50.632;13.700;2023-08-08T09:07:38;2.10;;;0.90;;
75426;SDS011;64007;50.632;13.700;2023-08-08T09:10:04;4.53;;;1.00;;
75426;SDS011;64007;50.632;13.700;2023-08-08T09:12:30;2.95;;;0.80;;
75426;SDS011;64007;50.632;13.700;2023-08-08T09:14:57;2.53;;;0.82;;
75426;SDS011;64007;50.632;13.700;2023-08-08T09:17:27;1.95;;;0.90;;
75426;SDS011;64007;50.632;13.700;2023-08-08T09:19:53;2.00;;;1.05;;
75426;SDS011;64007;50.632;13.700;2023-08-08T09:22:20;2.67;;;1.10;;
75426;SDS011;64007;50.632;13.700;2023-08-08T09:24:46;1.40;;;0.95;;
75426;SDS011;64007;50.632;13.700;2023-08-08T09:27:13;1.15;;;0.80;;
75426;SDS011;64007;50.632;13.700;2023-08-08T09:29:39;2.65;;;0.95;;
75426;SDS011;64007;50.632;13.700;2023-08-08T09:32:06;2.55;;;1.20;;
75426;SDS011;64007;50.632;13.700;2023-08-08T09:34:32;4.25;;;1.10;;
75426;SDS011;64007;50.632;13.700;2023-08-08T09:36:58;2.90;;;1.40;;
75426;SDS011;64007;50.632;13.700;2023-08-08T09:39:25;2.92;;;1.20;;
75426;SDS011;64007;50.632;13.700;2023-08-08T09:41:51;2.92;;;1.10;;
75426;SDS011;64007;50.632;13.700;2023-08-08T09:44:17;1.52;;;0.90;;
75426;SDS011;64007;50.632;13.700;2023-08-08T09:46:43;2.38;;;0.93;;
75426;SDS011;64007;50.632;13.700;2023-08-08T09:49:12;1.52;;;0.90;;
75426;SDS011;64007;50.632;13.700;2023-08-08T09:51:39;1.95;;;1.00;;
75426;SDS011;64007;50.632;13.700;2023-08-08T09:54:05;2.40;;;1.00;;
75426;SDS011;64007;50.632;13.700;2023-08-08T09:56:34;4.63;;;1.17;;
75426;SDS011;64007;50.632;13.700;2023-08-08T09:59:01;1.58;;;1.00;;
75426;SDS011;64007;50.632;13.700;2023-08-08T10:01:30;1.13;;;0.88;;
75426;SDS011;64007;50.632;13.700;2023-08-08T10:03:56;5.28;;;1.20;;
75426;SDS011;64007;50.632;13.700;2023-08-08T10:06:23;2.25;;;1.00;;
75426;SDS011;64007;50.632;13.700;2023-08-08T10:08:49;2.80;;;1.13;;
75426;SDS011;64007;50.632;13.700;2023-08-08T10:11:15;2.58;;;0.90;;
75426;SDS011;64007;50.632;13.700;2023-08-08T10:13:49;5.07;;;1.20;;
75426;SDS011;64007;50.632;13.700;2023-08-08T10:16:18;4.43;;;1.10;;
75426;SDS011;64007;50.632;13.700;2023-08-08T10:18:45;4.40;;;1.10;;
75426;SDS011;64007;50.632;13.700;2023-08-08T10:21:12;3.13;;;1.10;;
75426;SDS011;64007;50.632;13.700;2023-08-08T10:23:38;3.60;;;1.17;;
75426;SDS011;64007;50.632;13.700;2023-08-08T10:26:05;2.15;;;1.48;;
75426;SDS011;64007;50.632;13.700;2023-08-08T10:28:52;1.35;;;1.08;;
75426;SDS011;64007;50.632;13.700;2023-08-08T10:31:19;4.13;;;1.30;;
75426;SDS011;64007;50.632;13.700;2023-08-08T10:33:46;3.38;;;1.30;;
75426;SDS011;64007;50.632;13.700;2023-08-08T10:36:12;5.78;;;1.15;;
75426;SDS011;64007;50.632;13.700;2023-08-08T10:38:45;2.75;;;1.10;;
75426;SDS011;64007;50.632;13.700;2023-08-08T10:43:54;1.52;;;1.15;;
75426;SDS011;64007;50.632;13.700;2023-08-08T10:46:22;2.85;;;1.10;;
75426;SDS011;64007;50.632;13.700;2023-08-08T10:48:51;1.83;;;0.95;;
75426;SDS011;64007;50.632;13.700;2023-08-08T10:51:18;1.73;;;1.15;;
75426;SDS011;64007;50.632;13.700;2023-08-08T10:53:44;1.90;;;1.10;;
75426;SDS011;64007;50.632;13.700;2023-08-08T10:56:14;2.85;;;1.23;;
75426;SDS011;64007;50.632;13.700;2023-08-08T10:58:41;3.60;;;1.30;;
75426;SDS011;64007;50.632;13.700;2023-08-08T11:01:08;1.98;;;1.10;;
75426;SDS011;64007;50.632;13.700;2023-08-08T11:03:38;3.60;;;1.17;;
75426;SDS011;64007;50.632;13.700;2023-08-08T11:06:08;1.75;;;0.98;;
75426;SDS011;64007;50.632;13.700;2023-08-08T11:08:36;2.83;;;1.05;;
75426;SDS011;64007;50.632;13.700;2023-08-08T11:11:04;1.58;;;0.90;;
75426;SDS011;64007;50.632;13.700;2023-08-08T11:13:31;3.30;;;1.20;;
75426;SDS011;64007;50.632;13.700;2023-08-08T11:15:57;2.33;;;1.20;;
75426;SDS011;64007;50.632;13.700;2023-08-08T11:18:23;2.00;;;1.15;;
75426;SDS011;64007;50.632;13.700;2023-08-08T11:20:50;2.38;;;1.00;;
75426;SDS011;64007;50.632;13.700;2023-08-08T11:23:16;1.55;;;1.00;;
75426;SDS011;64007;50.632;13.700;2023-08-08T11:25:44;3.35;;;1.45;;
75426;SDS011;64007;50.632;13.700;2023-08-08T11:28:11;2.90;;;1.10;;
75426;SDS011;64007;50.632;13.700;2023-08-08T11:30:38;3.90;;;1.30;;
75426;SDS011;64007;50.632;13.700;2023-08-08T11:33:06;1.52;;;1.00;;
75426;SDS011;64007;50.632;13.700;2023-08-08T11:35:34;2.08;;;1.00;;
75426;SDS011;64007;50.632;13.700;2023-08-08T11:38:00;1.67;;;0.80;;
75426;SDS011;64007;50.632;13.700;2023-08-08T11:40:27;2.35;;;0.90;;
75426;SDS011;64007;50.632;13.700;2023-08-08T11:42:54;3.60;;;1.00;;
75426;SDS011;64007;50.632;13.700;2023-08-08T11:45:25;1.52;;;1.00;;
75426;SDS011;64007;50.632;13.700;2023-08-08T11:47:52;2.45;;;1.02;;
75426;SDS011;64007;50.632;13.700;2023-08-08T11:50:22;2.30;;;1.10;;
75426;SDS011;64007;50.632;13.700;2023-08-08T11:52:50;4.88;;;1.00;;
75426;SDS011;64007;50.632;13.700;2023-08-08T11:55:21;4.43;;;1.88;;
75426;SDS011;64007;50.632;13.700;2023-08-08T11:57:56;1.77;;;1.10;;
75426;SDS011;64007;50.632;13.700;2023-08-08T12:00:31;2.92;;;0.80;;
75426;SDS011;64007;50.632;13.700;2023-08-08T12:02:56;5.78;;;0.93;;
75426;SDS011;64007;50.632;13.700;2023-08-08T12:05:23;1.65;;;1.00;;
75426;SDS011;64007;50.632;13.700;2023-08-08T12:07:51;1.20;;;0.90;;
75426;SDS011;64007;50.632;13.700;2023-08-08T12:10:21;3.40;;;1.10;;
75426;SDS011;64007;50.632;13.700;2023-08-08T12:12:52;1.23;;;0.88;;
75426;SDS011;64007;50.632;13.700;2023-08-08T12:17:45;2.05;;;1.05;;
75426;SDS011;64007;50.632;13.700;2023-08-08T12:20:11;1.73;;;1.02;;
75426;SDS011;64007;50.632;13.700;2023-08-08T12:22:37;1.42;;;1.00;;
75426;SDS011;64007;50.632;13.700;2023-08-08T12:25:03;1.85;;;1.08;;
75426;SDS011;64007;50.632;13.700;2023-08-08T12:27:30;1.40;;;1.00;;
75426;SDS011;64007;50.632;13.700;2023-08-08T12:29:56;1.70;;;1.02;;
75426;SDS011;64007;50.632;13.700;2023-08-08T12:32:26;1.75;;;0.95;;
75426;SDS011;64007;50.632;13.700;2023-08-08T12:34:54;1.88;;;0.90;;
75426;SDS011;64007;50.632;13.700;2023-08-08T12:37:21;2.80;;;1.20;;
75426;SDS011;64007;50.632;13.700;2023-08-08T12:39:48;1.60;;;1.00;;
75426;SDS011;64007;50.632;13.700;2023-08-08T12:42:15;6.40;;;1.65;;
75426;SDS011;64007;50.632;13.700;2023-08-08T12:44:42;15.23;;;2.08;;
75426;SDS011;64007;50.632;13.700;2023-08-08T12:47:08;17.77;;;2.20;;
75426;SDS011;64007;50.632;13.700;2023-08-08T12:49:34;9.10;;;1.92;;
75426;SDS011;64007;50.632;13.700;2023-08-08T12:51:59;13.10;;;2.20;;
75426;SDS011;64007;50.632;13.700;2023-08-08T12:54:25;11.52;;;1.88;;
75426;SDS011;64007;50.632;13.700;2023-08-08T12:56:51;10.82;;;1.20;;
75426;SDS011;64007;50.632;13.700;2023-08-08T12:59:16;7.50;;;1.30;;
75426;SDS011;64007;50.632;13.700;2023-08-08T13:01:42;5.45;;;1.20;;
75426;SDS011;64007;50.632;13.700;2023-08-08T13:04:08;2.30;;;1.10;;
75426;SDS011;64007;50.632;13.700;2023-08-08T13:06:34;2.05;;;1.15;;
75426;SDS011;64007;50.632;13.700;2023-08-08T13:09:00;3.63;;;0.98;;
75426;SDS011;64007;50.632;13.700;2023-08-08T13:11:26;5.75;;;1.25;;
75426;SDS011;64007;50.632;13.700;2023-08-08T13:13:52;1.75;;;1.10;;
75426;SDS011;64007;50.632;13.700;2023-08-08T13:16:18;3.75;;;1.20;;
75426;SDS011;64007;50.632;13.700;2023-08-08T13:18:43;3.63;;;1.10;;
75426;SDS011;64007;50.632;13.700;2023-08-08T13:21:09;4.05;;;1.17;;
75426;SDS011;64007;50.632;13.700;2023-08-08T13:23:36;1.25;;;0.95;;
75426;SDS011;64007;50.632;13.700;2023-08-08T13:26:01;2.33;;;1.10;;
75426;SDS011;64007;50.632;13.700;2023-08-08T13:28:31;1.67;;;0.95;;
75426;SDS011;64007;50.632;13.700;2023-08-08T13:30:56;5.40;;;1.33;;
75426;SDS011;64007;50.632;13.700;2023-08-08T13:33:22;1.85;;;1.00;;
75426;SDS011;64007;50.632;13.700;2023-08-08T13:35:48;5.05;;;1.10;;
75426;SDS011;64007;50.632;13.700;2023-08-08T13:38:14;2.28;;;1.05;;
75426;SDS011;64007;50.632;13.700;2023-08-08T13:40:42;2.15;;;0.95;;
75426;SDS011;64007;50.632;13.700;2023-08-08T13:43:09;2.88;;;1.10;;
75426;SDS011;64007;50.632;13.700;2023-08-08T13:45:35;1.48;;;0.85;;
75426;SDS011;64007;50.632;13.700;2023-08-08T13:48:01;2.22;;;1.00;;
75426;SDS011;64007;50.632;13.700;2023-08-08T13:50:27;3.00;;;1.17;;
75426;SDS011;64007;50.632;13.700;2023-08-08T13:52:54;1.65;;;0.98;;
75426;SDS011;64007;50.632;13.700;2023-08-08T13:55:19;2.78;;;1.10;;
75426;SDS011;64007;50.632;13.700;2023-08-08T13:57:45;1.40;;;1.10;;
75426;SDS011;64007;50.632;13.700;2023-08-08T14:00:11;1.45;;;1.10;;
75426;SDS011;64007;50.632;13.700;2023-08-08T14:02:38;1.65;;;1.02;;
75426;SDS011;64007;50.632;13.700;2023-08-08T14:05:04;5.55;;;1.20;;
75426;SDS011;64007;50.632;13.700;2023-08-08T14:07:32;1.85;;;1.02;;
75426;SDS011;64007;50.632;13.700;2023-08-08T14:09:59;2.80;;;1.20;;
75426;SDS011;64007;50.632;13.700;2023-08-08T14:12:25;1.73;;;0.90;;
75426;SDS011;64007;50.632;13.700;2023-08-08T14:14:50;1.58;;;0.90;;
75426;SDS011;64007;50.632;13.700;2023-08-08T14:17:16;2.00;;;0.93;;
75426;SDS011;64007;50.632;13.700;2023-08-08T14:19:41;2.28;;;1.25;;
75426;SDS011;64007;50.632;13.700;2023-08-08T14:22:07;1.88;;;1.05;;
75426;SDS011;64007;50.632;13.700;2023-08-08T14:24:33;2.25;;;1.08;;
75426;SDS011;64007;50.632;13.700;2023-08-08T14:26:59;1.95;;;1.17;;
75426;SDS011;64007;50.632;13.700;2023-08-08T14:29:24;1.85;;;1.20;;
75426;SDS011;64007;50.632;13.700;2023-08-08T14:31:50;3.47;;;1.20;;
75426;SDS011;64007;50.632;13.700;2023-08-08T14:34:16;2.60;;;1.23;;
75426;SDS011;64007;50.632;13.700;2023-08-08T14:36:41;1.92;;;1.00;;
75426;SDS011;64007;50.632;13.700;2023-08-08T14:39:07;2.25;;;1.20;;